sensor_id;sensor_type;location;lat;lon;timestamp;P1;durP1;ratioP1;P2;durP2;ratioP2
75073;SDS011;63652;51.526;5.080;2023-06-10T00:00:48;6.40;;;4.10;;
75073;SDS011;63652;51.526;5.080;2023-06-10T00:03:15;5.50;;;4.03;;
75073;SDS011;63652;51.526;5.080;2023-06-10T00:05:41;5.00;;;3.60;;
75073;SDS011;63652;51.526;5.080;2023-06-10T00:08:06;4.80;;;3.63;;
75073;SDS011;63652;51.526;5.080;2023-06-10T00:10:36;8.35;;;4.80;;
75073;SDS011;63652;51.526;5.080;2023-06-10T00:15:29;6.15;;;4.10;;
75073;SDS011;63652;51.526;5.080;2023-06-10T00:17:55;7.85;;;4.13;;
75073;SDS011;63652;51.526;5.080;2023-06-10T00:20:20;4.88;;;3.88;;
75073;SDS011;63652;51.526;5.080;2023-06-10T00:22:48;7.55;;;4.85;;
75073;SDS011;63652;51.526;5.080;2023-06-10T00:25:14;6.35;;;4.40;;
75073;SDS011;63652;51.526;5.080;2023-06-10T00:27:39;6.03;;;4.32;;
75073;SDS011;63652;51.526;5.080;2023-06-10T00:30:05;6.10;;;4.07;;
75073;SDS011;63652;51.526;5.080;2023-06-10T00:32:36;6.45;;;3.92;;
75073;SDS011;63652;51.526;5.080;2023-06-10T00:35:05;7.93;;;4.80;;
75073;SDS011;63652;51.526;5.080;2023-06-10T00:37:31;6.80;;;4.53;;
75073;SDS011;63652;51.526;5.080;2023-06-10T00:40:03;6.53;;;3.85;;
75073;SDS011;63652;51.526;5.080;2023-06-10T00:42:29;6.28;;;4.57;;
75073;SDS011;63652;51.526;5.080;2023-06-10T00:44:54;6.40;;;4.45;;
75073;SDS011;63652;51.526;5.080;2023-06-10T00:47:20;5.97;;;4.18;;
75073;SDS011;63652;51.526;5.080;2023-06-10T00:49:46;6.82;;;4.43;;
75073;SDS011;63652;51.526;5.080;2023-06-10T00:52:11;5.93;;;4.50;;
75073;SDS011;63652;51.526;5.080;2023-06-10T00:54:40;6.60;;;4.63;;
75073;SDS011;63652;51.526;5.080;2023-06-10T00:57:05;6.30;;;4.20;;
75073;SDS011;63652;51.526;5.080;2023-06-10T00:59:31;6.05;;;4.40;;
75073;SDS011;63652;51.526;5.080;2023-06-10T01:01:57;5.90;;;4.07;;
75073;SDS011;63652;51.526;5.080;2023-06-10T01:04:23;8.63;;;4.50;;
75073;SDS011;63652;51.526;5.080;2023-06-10T01:12:29;6.75;;;4.13;;
75073;SDS011;63652;51.526;5.080;2023-06-10T01:14:58;6.28;;;3.70;;
75073;SDS011;63652;51.526;5.080;2023-06-10T01:17:24;6.07;;;3.92;;
75073;SDS011;63652;51.526;5.080;2023-06-10T01:19:55;7.75;;;4.03;;
75073;SDS011;63652;51.526;5.080;2023-06-10T01:22:22;6.38;;;3.95;;
75073;SDS011;63652;51.526;5.080;2023-06-10T01:24:49;7.32;;;4.00;;
75073;SDS011;63652;51.526;5.080;2023-06-10T01:27:15;6.03;;;3.80;;
75073;SDS011;63652;51.526;5.080;2023-06-10T01:29:46;7.03;;;5.10;;
75073;SDS011;63652;51.526;5.080;2023-06-10T01:32:22;7.00;;;4.45;;
75073;SDS011;63652;51.526;5.080;2023-06-10T01:34:52;7.10;;;4.80;;
75073;SDS011;63652;51.526;5.080;2023-06-10T01:37:19;7.47;;;5.22;;
75073;SDS011;63652;51.526;5.080;2023-06-10T01:39:46;6.93;;;3.92;;
75073;SDS011;63652;51.526;5.080;2023-06-10T01:42:27;6.18;;;3.90;;
75073;SDS011;63652;51.526;5.080;2023-06-10T01:44:53;6.18;;;4.25;;
75073;SDS011;63652;51.526;5.080;2023-06-10T01:47:18;8.35;;;4.72;;
75073;SDS011;63652;51.526;5.080;2023-06-10T01:49:44;7.88;;;4.38;;
75073;SDS011;63652;51.526;5.080;2023-06-10T01:52:09;7.53;;;4.50;;
75073;SDS011;63652;51.526;5.080;2023-06-10T01:54:35;7.68;;;5.00;;
75073;SDS011;63652;51.526;5.080;2023-06-10T01:57:01;6.40;;;4.13;;
75073;SDS011;63652;51.526;5.080;2023-06-10T01:59:26;7.97;;;4.30;;
75073;SDS011;63652;51.526;5.080;2023-06-10T02:01:52;6.20;;;4.10;;
75073;SDS011;63652;51.526;5.080;2023-06-10T02:04:17;7.43;;;3.75;;
75073;SDS011;63652;51.526;5.080;2023-06-10T02:06:43;7.30;;;4.30;;
75073;SDS011;63652;51.526;5.080;2023-06-10T02:09:08;6.45;;;3.85;;
75073;SDS011;63652;51.526;5.080;2023-06-10T02:11:34;7.13;;;4.35;;
75073;SDS011;63652;51.526;5.080;2023-06-10T02:13:59;5.95;;;3.92;;
75073;SDS011;63652;51.526;5.080;2023-06-10T02:16:25;6.05;;;4.30;;
75073;SDS011;63652;51.526;5.080;2023-06-10T02:18:51;6.43;;;3.90;;
75073;SDS011;63652;51.526;5.080;2023-06-10T02:21:17;6.72;;;4.30;;
75073;SDS011;63652;51.526;5.080;2023-06-10T02:23:42;6.40;;;4.00;;
75073;SDS011;63652;51.526;5.080;2023-06-10T02:26:07;9.02;;;4.85;;
75073;SDS011;63652;51.526;5.080;2023-06-10T02:28:33;8.98;;;4.47;;
75073;SDS011;63652;51.526;5.080;2023-06-10T02:30:58;5.32;;;3.78;;
75073;SDS011;63652;51.526;5.080;2023-06-10T02:33:24;6.75;;;3.50;;
75073;SDS011;63652;51.526;5.080;2023-06-10T02:35:50;7.18;;;3.92;;
75073;SDS011;63652;51.526;5.080;2023-06-10T02:38:16;8.98;;;4.63;;
75073;SDS011;63652;51.526;5.080;2023-06-10T02:40:42;8.27;;;4.45;;
75073;SDS011;63652;51.526;5.080;2023-06-10T02:43:08;6.72;;;4.45;;
75073;SDS011;63652;51.526;5.080;2023-06-10T02:45:34;7.70;;;4.45;;
75073;SDS011;63652;51.526;5.080;2023-06-10T02:47:59;6.82;;;4.30;;
75073;SDS011;63652;51.526;5.080;2023-06-10T02:50:25;7.38;;;5.00;;
75073;SDS011;63652;51.526;5.080;2023-06-10T02:52:50;9.23;;;4.47;;
75073;SDS011;63652;51.526;5.080;2023-06-10T02:55:16;7.05;;;4.22;;
75073;SDS011;63652;51.526;5.080;2023-06-10T02:57:41;6.68;;;4.80;;
75073;SDS011;63652;51.526;5.080;2023-06-10T03:00:07;6.55;;;4.50;;
75073;SDS011;63652;51.526;5.080;2023-06-10T03:02:36;5.32;;;3.67;;
75073;SDS011;63652;51.526;5.080;2023-06-10T03:05:04;5.63;;;4.13;;
75073;SDS011;63652;51.526;5.080;2023-06-10T03:07:30;5.68;;;3.90;;
75073;SDS011;63652;51.526;5.080;2023-06-10T03:09:56;7.97;;;3.90;;
75073;SDS011;63652;51.526;5.080;2023-06-10T03:12:21;9.80;;;4.90;;
75073;SDS011;63652;51.526;5.080;2023-06-10T03:14:47;7.03;;;4.30;;
75073;SDS011;63652;51.526;5.080;2023-06-10T03:17:12;8.30;;;5.05;;
75073;SDS011;63652;51.526;5.080;2023-06-10T03:19:37;6.93;;;4.80;;
75073;SDS011;63652;51.526;5.080;2023-06-10T03:22:07;6.18;;;4.50;;
75073;SDS011;63652;51.526;5.080;2023-06-10T03:24:37;6.45;;;4.45;;
75073;SDS011;63652;51.526;5.080;2023-06-10T03:27:05;6.97;;;4.43;;
75073;SDS011;63652;51.526;5.080;2023-06-10T03:29:34;6.80;;;4.57;;
75073;SDS011;63652;51.526;5.080;2023-06-10T03:32:00;8.95;;;5.15;;
75073;SDS011;63652;51.526;5.080;2023-06-10T03:34:26;7.75;;;4.35;;
75073;SDS011;63652;51.526;5.080;2023-06-10T03:36:51;7.90;;;4.45;;
75073;SDS011;63652;51.526;5.080;2023-06-10T03:39:17;7.00;;;4.32;;
75073;SDS011;63652;51.526;5.080;2023-06-10T03:41:42;8.23;;;4.63;;
75073;SDS011;63652;51.526;5.080;2023-06-10T03:44:08;7.43;;;4.50;;
75073;SDS011;63652;51.526;5.080;2023-06-10T03:46:33;10.07;;;5.57;;
75073;SDS011;63652;51.526;5.080;2023-06-10T03:48:58;10.40;;;4.65;;
75073;SDS011;63652;51.526;5.080;2023-06-10T03:51:29;7.57;;;4.80;;
75073;SDS011;63652;51.526;5.080;2023-06-10T03:53:54;8.40;;;4.90;;
75073;SDS011;63652;51.526;5.080;2023-06-10T03:56:20;7.68;;;4.88;;
75073;SDS011;63652;51.526;5.080;2023-06-10T03:58:45;7.75;;;4.88;;
75073;SDS011;63652;51.526;5.080;2023-06-10T04:01:10;9.05;;;4.85;;
75073;SDS011;63652;51.526;5.080;2023-06-10T04:03:38;11.55;;;4.85;;
75073;SDS011;63652;51.526;5.080;2023-06-10T04:06:04;7.95;;;4.95;;
75073;SDS011;63652;51.526;5.080;2023-06-10T04:08:30;7.78;;;5.40;;
75073;SDS011;63652;51.526;5.080;2023-06-10T04:10:56;7.93;;;4.97;;
75073;SDS011;63652;51.526;5.080;2023-06-10T04:13:22;8.00;;;5.07;;
75073;SDS011;63652;51.526;5.080;2023-06-10T04:15:48;7.75;;;5.07;;
75073;SDS011;63652;51.526;5.080;2023-06-10T04:18:13;8.10;;;5.45;;
75073;SDS011;63652;51.526;5.080;2023-06-10T04:20:39;10.00;;;5.28;;
75073;SDS011;63652;51.526;5.080;2023-06-10T04:23:04;8.27;;;5.13;;
75073;SDS011;63652;51.526;5.080;2023-06-10T04:25:29;8.77;;;5.45;;
75073;SDS011;63652;51.526;5.080;2023-06-10T04:27:55;9.57;;;5.20;;
75073;SDS011;63652;51.526;5.080;2023-06-10T04:30:20;7.60;;;4.97;;
75073;SDS011;63652;51.526;5.080;2023-06-10T04:32:47;8.63;;;5.32;;
75073;SDS011;63652;51.526;5.080;2023-06-10T04:35:12;8.32;;;5.22;;
75073;SDS011;63652;51.526;5.080;2023-06-10T04:37:39;8.48;;;5.88;;
75073;SDS011;63652;51.526;5.080;2023-06-10T04:40:05;11.07;;;5.55;;
75073;SDS011;63652;51.526;5.080;2023-06-10T04:42:31;10.93;;;5.68;;
75073;SDS011;63652;51.526;5.080;2023-06-10T04:44:56;8.65;;;6.10;;
75073;SDS011;63652;51.526;5.080;2023-06-10T04:47:22;9.93;;;5.22;;
75073;SDS011;63652;51.526;5.080;2023-06-10T04:49:48;10.90;;;5.13;;
75073;SDS011;63652;51.526;5.080;2023-06-10T04:52:13;7.22;;;4.93;;
75073;SDS011;63652;51.526;5.080;2023-06-10T04:54:39;10.55;;;5.18;;
75073;SDS011;63652;51.526;5.080;2023-06-10T04:57:04;7.82;;;5.20;;
75073;SDS011;63652;51.526;5.080;2023-06-10T04:59:32;8.10;;;5.00;;
75073;SDS011;63652;51.526;5.080;2023-06-10T05:01:58;7.32;;;5.32;;
75073;SDS011;63652;51.526;5.080;2023-06-10T05:04:24;7.15;;;5.25;;
75073;SDS011;63652;51.526;5.080;2023-06-10T05:06:49;8.38;;;5.75;;
75073;SDS011;63652;51.526;5.080;2023-06-10T05:09:15;7.10;;;4.75;;
75073;SDS011;63652;51.526;5.080;2023-06-10T05:11:40;8.23;;;5.05;;
75073;SDS011;63652;51.526;5.080;2023-06-10T05:14:05;9.43;;;5.53;;
75073;SDS011;63652;51.526;5.080;2023-06-10T05:16:31;7.32;;;5.20;;
75073;SDS011;63652;51.526;5.080;2023-06-10T05:18:57;8.35;;;4.47;;
75073;SDS011;63652;51.526;5.080;2023-06-10T05:21:22;10.95;;;5.00;;
75073;SDS011;63652;51.526;5.080;2023-06-10T05:23:47;7.47;;;5.22;;
75073;SDS011;63652;51.526;5.080;2023-06-10T05:26:13;9.52;;;6.20;;
75073;SDS011;63652;51.526;5.080;2023-06-10T05:28:39;12.10;;;6.55;;
75073;SDS011;63652;51.526;5.080;2023-06-10T05:31:04;7.30;;;5.00;;
75073;SDS011;63652;51.526;5.080;2023-06-10T05:33:30;8.00;;;5.38;;
75073;SDS011;63652;51.526;5.080;2023-06-10T05:35:55;10.75;;;6.03;;
75073;SDS011;63652;51.526;5.080;2023-06-10T05:38:20;9.18;;;4.95;;
75073;SDS011;63652;51.526;5.080;2023-06-10T05:40:46;8.48;;;5.10;;
75073;SDS011;63652;51.526;5.080;2023-06-10T05:43:11;9.90;;;5.57;;
75073;SDS011;63652;51.526;5.080;2023-06-10T05:45:37;7.85;;;4.93;;
75073;SDS011;63652;51.526;5.080;2023-06-10T05:48:02;7.05;;;4.75;;
75073;SDS011;63652;51.526;5.080;2023-06-10T05:50:28;9.68;;;6.13;;
75073;SDS011;63652;51.526;5.080;2023-06-10T05:52:53;9.80;;;5.65;;
75073;SDS011;63652;51.526;5.080;2023-06-10T05:55:20;10.38;;;5.63;;
75073;SDS011;63652;51.526;5.080;2023-06-10T05:57:45;10.73;;;6.25;;
75073;SDS011;63652;51.526;5.080;2023-06-10T06:00:11;8.10;;;5.47;;
75073;SDS011;63652;51.526;5.080;2023-06-10T06:02:36;8.88;;;5.55;;
75073;SDS011;63652;51.526;5.080;2023-06-10T06:05:02;8.65;;;5.22;;
75073;SDS011;63652;51.526;5.080;2023-06-10T06:07:27;9.43;;;5.22;;
75073;SDS011;63652;51.526;5.080;2023-06-10T06:09:53;10.68;;;6.30;;
75073;SDS011;63652;51.526;5.080;2023-06-10T06:12:18;9.80;;;6.30;;
75073;SDS011;63652;51.526;5.080;2023-06-10T06:14:44;7.95;;;5.05;;
75073;SDS011;63652;51.526;5.080;2023-06-10T06:17:09;8.30;;;5.00;;
75073;SDS011;63652;51.526;5.080;2023-06-10T06:19:35;9.30;;;5.40;;
75073;SDS011;63652;51.526;5.080;2023-06-10T06:22:00;8.10;;;4.95;;
75073;SDS011;63652;51.526;5.080;2023-06-10T06:24:26;9.38;;;4.90;;
75073;SDS011;63652;51.526;5.080;2023-06-10T06:26:51;8.48;;;4.90;;
75073;SDS011;63652;51.526;5.080;2023-06-10T06:29:17;11.05;;;5.93;;
75073;SDS011;63652;51.526;5.080;2023-06-10T06:31:43;8.65;;;4.88;;
75073;SDS011;63652;51.526;5.080;2023-06-10T06:34:08;6.13;;;4.30;;
75073;SDS011;63652;51.526;5.080;2023-06-10T06:36:33;9.48;;;5.57;;
75073;SDS011;63652;51.526;5.080;2023-06-10T06:38:59;8.60;;;4.85;;
75073;SDS011;63652;51.526;5.080;2023-06-10T06:41:27;6.95;;;4.47;;
75073;SDS011;63652;51.526;5.080;2023-06-10T06:43:53;7.82;;;5.15;;
75073;SDS011;63652;51.526;5.080;2023-06-10T06:46:19;7.45;;;4.50;;
75073;SDS011;63652;51.526;5.080;2023-06-10T06:48:45;8.15;;;5.13;;
75073;SDS011;63652;51.526;5.080;2023-06-10T06:51:10;9.75;;;5.85;;
75073;SDS011;63652;51.526;5.080;2023-06-10T06:53:35;8.77;;;5.10;;
75073;SDS011;63652;51.526;5.080;2023-06-10T06:56:01;7.63;;;4.75;;
75073;SDS011;63652;51.526;5.080;2023-06-10T06:58:28;7.70;;;4.82;;
75073;SDS011;63652;51.526;5.080;2023-06-10T07:00:53;8.57;;;5.00;;
75073;SDS011;63652;51.526;5.080;2023-06-10T07:03:18;8.00;;;4.68;;
75073;SDS011;63652;51.526;5.080;2023-06-10T07:05:44;9.68;;;5.03;;
75073;SDS011;63652;51.526;5.080;2023-06-10T07:08:09;7.78;;;4.47;;
75073;SDS011;63652;51.526;5.080;2023-06-10T07:10:35;8.65;;;4.40;;
75073;SDS011;63652;51.526;5.080;2023-06-10T07:13:00;6.53;;;4.28;;
75073;SDS011;63652;51.526;5.080;2023-06-10T07:15:26;6.60;;;4.28;;
75073;SDS011;63652;51.526;5.080;2023-06-10T07:17:51;6.60;;;4.50;;
75073;SDS011;63652;51.526;5.080;2023-06-10T07:20:16;6.80;;;4.53;;
75073;SDS011;63652;51.526;5.080;2023-06-10T07:22:43;7.03;;;4.13;;
75073;SDS011;63652;51.526;5.080;2023-06-10T07:25:08;9.30;;;4.97;;
75073;SDS011;63652;51.526;5.080;2023-06-10T07:27:34;8.40;;;4.43;;
75073;SDS011;63652;51.526;5.080;2023-06-10T07:30:02;6.75;;;4.32;;
75073;SDS011;63652;51.526;5.080;2023-06-10T07:32:28;5.90;;;4.50;;
75073;SDS011;63652;51.526;5.080;2023-06-10T07:34:54;8.30;;;4.93;;
75073;SDS011;63652;51.526;5.080;2023-06-10T07:37:19;7.25;;;4.53;;
75073;SDS011;63652;51.526;5.080;2023-06-10T07:39:45;7.18;;;4.35;;
75073;SDS011;63652;51.526;5.080;2023-06-10T07:42:10;6.75;;;4.25;;
75073;SDS011;63652;51.526;5.080;2023-06-10T07:44:36;10.73;;;4.72;;
75073;SDS011;63652;51.526;5.080;2023-06-10T07:47:02;6.85;;;4.50;;
75073;SDS011;63652;51.526;5.080;2023-06-10T07:49:28;6.40;;;4.35;;
75073;SDS011;63652;51.526;5.080;2023-06-10T07:51:54;5.85;;;3.88;;
75073;SDS011;63652;51.526;5.080;2023-06-10T07:54:23;5.60;;;4.07;;
75073;SDS011;63652;51.526;5.080;2023-06-10T07:56:49;6.85;;;3.90;;
75073;SDS011;63652;51.526;5.080;2023-06-10T07:59:16;6.53;;;4.15;;
75073;SDS011;63652;51.526;5.080;2023-06-10T08:01:41;8.85;;;4.45;;
75073;SDS011;63652;51.526;5.080;2023-06-10T08:04:07;7.53;;;3.70;;
75073;SDS011;63652;51.526;5.080;2023-06-10T08:06:33;6.20;;;4.30;;
75073;SDS011;63652;51.526;5.080;2023-06-10T08:08:59;6.15;;;4.03;;
75073;SDS011;63652;51.526;5.080;2023-06-10T08:11:25;7.07;;;4.63;;
75073;SDS011;63652;51.526;5.080;2023-06-10T08:13:53;5.45;;;3.42;;
75073;SDS011;63652;51.526;5.080;2023-06-10T08:16:19;5.82;;;3.50;;
75073;SDS011;63652;51.526;5.080;2023-06-10T08:18:44;6.03;;;3.80;;
75073;SDS011;63652;51.526;5.080;2023-06-10T08:21:10;6.30;;;3.50;;
75073;SDS011;63652;51.526;5.080;2023-06-10T08:23:35;8.38;;;4.32;;
75073;SDS011;63652;51.526;5.080;2023-06-10T08:26:00;6.70;;;4.60;;
75073;SDS011;63652;51.526;5.080;2023-06-10T08:28:26;5.72;;;3.58;;
75073;SDS011;63652;51.526;5.080;2023-06-10T08:30:51;6.07;;;4.03;;
75073;SDS011;63652;51.526;5.080;2023-06-10T08:33:17;6.47;;;4.00;;
75073;SDS011;63652;51.526;5.080;2023-06-10T08:35:43;6.82;;;3.58;;
75073;SDS011;63652;51.526;5.080;2023-06-10T08:38:08;23.95;;;6.38;;
75073;SDS011;63652;51.526;5.080;2023-06-10T08:40:34;7.70;;;3.80;;
75073;SDS011;63652;51.526;5.080;2023-06-10T08:43:06;5.32;;;3.42;;
75073;SDS011;63652;51.526;5.080;2023-06-10T08:45:34;6.38;;;3.85;;
75073;SDS011;63652;51.526;5.080;2023-06-10T08:48:00;6.55;;;3.67;;
75073;SDS011;63652;51.526;5.080;2023-06-10T08:50:29;3.90;;;2.72;;
75073;SDS011;63652;51.526;5.080;2023-06-10T08:52:57;7.18;;;3.85;;
75073;SDS011;63652;51.526;5.080;2023-06-10T08:55:26;12.82;;;4.50;;
75073;SDS011;63652;51.526;5.080;2023-06-10T08:57:54;6.05;;;3.25;;
75073;SDS011;63652;51.526;5.080;2023-06-10T09:00:20;6.15;;;3.58;;
75073;SDS011;63652;51.526;5.080;2023-06-10T09:02:46;5.15;;;3.22;;
75073;SDS011;63652;51.526;5.080;2023-06-10T09:05:12;6.63;;;3.58;;
75073;SDS011;63652;51.526;5.080;2023-06-10T09:07:38;6.05;;;3.50;;
75073;SDS011;63652;51.526;5.080;2023-06-10T09:10:04;5.45;;;3.20;;
75073;SDS011;63652;51.526;5.080;2023-06-10T09:12:32;6.10;;;3.65;;
75073;SDS011;63652;51.526;5.080;2023-06-10T09:14:59;5.50;;;3.08;;
75073;SDS011;63652;51.526;5.080;2023-06-10T09:17:24;4.75;;;3.03;;
75073;SDS011;63652;51.526;5.080;2023-06-10T09:19:50;5.50;;;3.50;;
75073;SDS011;63652;51.526;5.080;2023-06-10T09:22:15;5.20;;;3.58;;
75073;SDS011;63652;51.526;5.080;2023-06-10T09:24:41;5.03;;;3.00;;
75073;SDS011;63652;51.526;5.080;2023-06-10T09:27:07;6.30;;;3.55;;
75073;SDS011;63652;51.526;5.080;2023-06-10T09:29:52;5.00;;;2.95;;
75073;SDS011;63652;51.526;5.080;2023-06-10T09:32:19;5.13;;;3.33;;
75073;SDS011;63652;51.526;5.080;2023-06-10T09:34:45;5.68;;;2.88;;
75073;SDS011;63652;51.526;5.080;2023-06-10T09:37:11;5.15;;;3.25;;
75073;SDS011;63652;51.526;5.080;2023-06-10T09:39:38;5.93;;;3.63;;
75073;SDS011;63652;51.526;5.080;2023-06-10T09:42:15;5.45;;;3.53;;
75073;SDS011;63652;51.526;5.080;2023-06-10T09:44:41;4.68;;;3.08;;
75073;SDS011;63652;51.526;5.080;2023-06-10T09:47:06;9.77;;;2.90;;
75073;SDS011;63652;51.526;5.080;2023-06-10T09:49:32;7.03;;;3.55;;
75073;SDS011;63652;51.526;5.080;2023-06-10T09:51:57;4.70;;;2.75;;
75073;SDS011;63652;51.526;5.080;2023-06-10T09:54:23;4.32;;;2.97;;
75073;SDS011;63652;51.526;5.080;2023-06-10T09:56:49;3.72;;;2.47;;
75073;SDS011;63652;51.526;5.080;2023-06-10T09:59:15;4.63;;;2.90;;
75073;SDS011;63652;51.526;5.080;2023-06-10T10:01:41;5.30;;;3.13;;
75073;SDS011;63652;51.526;5.080;2023-06-10T10:04:06;4.50;;;3.10;;
75073;SDS011;63652;51.526;5.080;2023-06-10T10:06:32;5.88;;;3.10;;
75073;SDS011;63652;51.526;5.080;2023-06-10T10:08:57;4.85;;;2.85;;
75073;SDS011;63652;51.526;5.080;2023-06-10T10:11:23;6.90;;;3.45;;
75073;SDS011;63652;51.526;5.080;2023-06-10T10:13:51;6.35;;;3.38;;
75073;SDS011;63652;51.526;5.080;2023-06-10T10:16:22;5.85;;;3.20;;
75073;SDS011;63652;51.526;5.080;2023-06-10T10:18:57;5.88;;;3.25;;
75073;SDS011;63652;51.526;5.080;2023-06-10T10:21:26;5.63;;;3.20;;
75073;SDS011;63652;51.526;5.080;2023-06-10T10:26:28;5.53;;;3.33;;
75073;SDS011;63652;51.526;5.080;2023-06-10T10:28:59;5.70;;;3.00;;
75073;SDS011;63652;51.526;5.080;2023-06-10T10:31:36;5.72;;;3.50;;
75073;SDS011;63652;51.526;5.080;2023-06-10T10:34:04;4.15;;;3.05;;
75073;SDS011;63652;51.526;5.080;2023-06-10T10:36:31;4.68;;;3.65;;
75073;SDS011;63652;51.526;5.080;2023-06-10T10:38:57;5.20;;;3.33;;
75073;SDS011;63652;51.526;5.080;2023-06-10T10:41:23;4.53;;;3.22;;
75073;SDS011;63652;51.526;5.080;2023-06-10T10:43:51;4.57;;;3.08;;
75073;SDS011;63652;51.526;5.080;2023-06-10T10:46:16;5.90;;;3.38;;
75073;SDS011;63652;51.526;5.080;2023-06-10T10:48:42;5.22;;;3.17;;
75073;SDS011;63652;51.526;5.080;2023-06-10T10:51:08;4.75;;;3.13;;
75073;SDS011;63652;51.526;5.080;2023-06-10T10:53:36;5.20;;;3.03;;
75073;SDS011;63652;51.526;5.080;2023-06-10T10:56:13;4.85;;;3.15;;
75073;SDS011;63652;51.526;5.080;2023-06-10T10:58:40;4.38;;;3.00;;
75073;SDS011;63652;51.526;5.080;2023-06-10T11:01:12;4.03;;;2.70;;
75073;SDS011;63652;51.526;5.080;2023-06-10T11:03:45;5.78;;;3.25;;
75073;SDS011;63652;51.526;5.080;2023-06-10T11:06:14;6.20;;;3.42;;
75073;SDS011;63652;51.526;5.080;2023-06-10T11:11:20;8.40;;;3.90;;
75073;SDS011;63652;51.526;5.080;2023-06-10T11:16:37;4.22;;;2.97;;
75073;SDS011;63652;51.526;5.080;2023-06-10T11:19:08;4.50;;;2.42;;
75073;SDS011;63652;51.526;5.080;2023-06-10T11:21:45;5.90;;;2.95;;
75073;SDS011;63652;51.526;5.080;2023-06-10T11:24:23;6.22;;;3.58;;
75073;SDS011;63652;51.526;5.080;2023-06-10T11:26:49;4.78;;;2.92;;
75073;SDS011;63652;51.526;5.080;2023-06-10T11:29:15;4.45;;;3.25;;
75073;SDS011;63652;51.526;5.080;2023-06-10T11:31:58;4.03;;;3.15;;
75073;SDS011;63652;51.526;5.080;2023-06-10T11:34:24;5.57;;;3.58;;
75073;SDS011;63652;51.526;5.080;2023-06-10T11:36:51;4.35;;;3.47;;
75073;SDS011;63652;51.526;5.080;2023-06-10T11:39:17;6.13;;;3.03;;
75073;SDS011;63652;51.526;5.080;2023-06-10T11:41:43;5.82;;;3.67;;
75073;SDS011;63652;51.526;5.080;2023-06-10T11:44:12;5.18;;;3.33;;
75073;SDS011;63652;51.526;5.080;2023-06-10T11:46:38;4.90;;;3.28;;
75073;SDS011;63652;51.526;5.080;2023-06-10T11:49:04;5.60;;;2.88;;
75073;SDS011;63652;51.526;5.080;2023-06-10T11:51:34;5.05;;;2.53;;
75073;SDS011;63652;51.526;5.080;2023-06-10T11:54:02;5.70;;;3.00;;
75073;SDS011;63652;51.526;5.080;2023-06-10T11:56:28;5.25;;;3.28;;
75073;SDS011;63652;51.526;5.080;2023-06-10T11:58:55;4.50;;;2.83;;
75073;SDS011;63652;51.526;5.080;2023-06-10T12:01:26;5.30;;;2.60;;
75073;SDS011;63652;51.526;5.080;2023-06-10T12:09:30;4.65;;;3.08;;
75073;SDS011;63652;51.526;5.080;2023-06-10T12:11:58;3.95;;;3.05;;
75073;SDS011;63652;51.526;5.080;2023-06-10T12:19:55;4.65;;;3.35;;
75073;SDS011;63652;51.526;5.080;2023-06-10T12:22:21;4.50;;;3.28;;
75073;SDS011;63652;51.526;5.080;2023-06-10T12:27:26;3.92;;;3.05;;
75073;SDS011;63652;51.526;5.080;2023-06-10T12:29:55;4.45;;;3.13;;
75073;SDS011;63652;51.526;5.080;2023-06-10T12:32:34;4.38;;;3.47;;
75073;SDS011;63652;51.526;5.080;2023-06-10T12:35:07;6.88;;;3.47;;
75073;SDS011;63652;51.526;5.080;2023-06-10T12:37:33;6.15;;;3.63;;
75073;SDS011;63652;51.526;5.080;2023-06-10T12:40:02;4.43;;;2.85;;
75073;SDS011;63652;51.526;5.080;2023-06-10T12:42:28;4.38;;;3.38;;
75073;SDS011;63652;51.526;5.080;2023-06-10T12:44:55;4.78;;;3.33;;
75073;SDS011;63652;51.526;5.080;2023-06-10T12:47:31;4.60;;;3.05;;
75073;SDS011;63652;51.526;5.080;2023-06-10T12:49:59;4.93;;;3.20;;
75073;SDS011;63652;51.526;5.080;2023-06-10T12:52:25;5.30;;;3.00;;
75073;SDS011;63652;51.526;5.080;2023-06-10T12:54:51;4.80;;;3.20;;
75073;SDS011;63652;51.526;5.080;2023-06-10T12:57:17;5.65;;;2.83;;
75073;SDS011;63652;51.526;5.080;2023-06-10T12:59:42;5.95;;;3.45;;
75073;SDS011;63652;51.526;5.080;2023-06-10T13:02:15;4.85;;;3.05;;
75073;SDS011;63652;51.526;5.080;2023-06-10T13:04:40;4.80;;;3.22;;
75073;SDS011;63652;51.526;5.080;2023-06-10T13:07:06;4.13;;;3.30;;
75073;SDS011;63652;51.526;5.080;2023-06-10T13:09:31;4.85;;;3.20;;
75073;SDS011;63652;51.526;5.080;2023-06-10T13:11:57;4.35;;;3.03;;
75073;SDS011;63652;51.526;5.080;2023-06-10T13:14:22;6.00;;;3.40;;
75073;SDS011;63652;51.526;5.080;2023-06-10T13:16:47;6.70;;;3.70;;
75073;SDS011;63652;51.526;5.080;2023-06-10T13:19:13;5.78;;;3.08;;
75073;SDS011;63652;51.526;5.080;2023-06-10T13:21:38;4.07;;;2.97;;
75073;SDS011;63652;51.526;5.080;2023-06-10T13:24:04;4.55;;;3.20;;
75073;SDS011;63652;51.526;5.080;2023-06-10T13:26:29;4.40;;;3.05;;
75073;SDS011;63652;51.526;5.080;2023-06-10T13:28:55;4.95;;;2.95;;
75073;SDS011;63652;51.526;5.080;2023-06-10T13:31:20;6.07;;;2.97;;
75073;SDS011;63652;51.526;5.080;2023-06-10T13:33:49;4.60;;;3.17;;
75073;SDS011;63652;51.526;5.080;2023-06-10T13:36:14;4.38;;;3.13;;
75073;SDS011;63652;51.526;5.080;2023-06-10T13:38:40;4.25;;;3.13;;
75073;SDS011;63652;51.526;5.080;2023-06-10T13:41:05;4.18;;;3.17;;
75073;SDS011;63652;51.526;5.080;2023-06-10T13:43:31;5.00;;;3.00;;
75073;SDS011;63652;51.526;5.080;2023-06-10T13:45:57;4.10;;;3.03;;
75073;SDS011;63652;51.526;5.080;2023-06-10T13:48:22;4.95;;;3.22;;
75073;SDS011;63652;51.526;5.080;2023-06-10T13:50:47;4.82;;;3.38;;
75073;SDS011;63652;51.526;5.080;2023-06-10T13:53:13;4.28;;;3.42;;
75073;SDS011;63652;51.526;5.080;2023-06-10T13:55:38;4.68;;;3.35;;
75073;SDS011;63652;51.526;5.080;2023-06-10T13:58:04;4.97;;;3.13;;
75073;SDS011;63652;51.526;5.080;2023-06-10T14:00:30;4.82;;;3.17;;
75073;SDS011;63652;51.526;5.080;2023-06-10T14:02:56;4.30;;;2.95;;
75073;SDS011;63652;51.526;5.080;2023-06-10T14:05:21;4.50;;;2.92;;
75073;SDS011;63652;51.526;5.080;2023-06-10T14:07:47;4.90;;;3.92;;
75073;SDS011;63652;51.526;5.080;2023-06-10T14:10:12;4.82;;;3.42;;
75073;SDS011;63652;51.526;5.080;2023-06-10T14:12:37;4.68;;;2.92;;
75073;SDS011;63652;51.526;5.080;2023-06-10T14:15:04;4.68;;;3.40;;
75073;SDS011;63652;51.526;5.080;2023-06-10T14:17:29;5.20;;;3.10;;
75073;SDS011;63652;51.526;5.080;2023-06-10T14:19:55;4.75;;;3.22;;
75073;SDS011;63652;51.526;5.080;2023-06-10T14:22:20;4.72;;;3.63;;
75073;SDS011;63652;51.526;5.080;2023-06-10T14:24:46;6.10;;;3.67;;
75073;SDS011;63652;51.526;5.080;2023-06-10T14:27:12;5.00;;;2.67;;
75073;SDS011;63652;51.526;5.080;2023-06-10T14:29:37;4.43;;;3.28;;
75073;SDS011;63652;51.526;5.080;2023-06-10T14:32:03;4.72;;;3.00;;
75073;SDS011;63652;51.526;5.080;2023-06-10T14:34:29;4.88;;;3.53;;
75073;SDS011;63652;51.526;5.080;2023-06-10T14:36:58;4.45;;;2.90;;
75073;SDS011;63652;51.526;5.080;2023-06-10T14:39:24;4.20;;;3.10;;
75073;SDS011;63652;51.526;5.080;2023-06-10T14:41:50;5.32;;;3.72;;
75073;SDS011;63652;51.526;5.080;2023-06-10T14:44:17;4.35;;;3.10;;
75073;SDS011;63652;51.526;5.080;2023-06-10T14:46:43;5.03;;;3.35;;
75073;SDS011;63652;51.526;5.080;2023-06-10T14:49:08;5.97;;;3.13;;
75073;SDS011;63652;51.526;5.080;2023-06-10T14:51:34;4.95;;;3.00;;
75073;SDS011;63652;51.526;5.080;2023-06-10T14:53:59;4.53;;;2.97;;
75073;SDS011;63652;51.526;5.080;2023-06-10T14:56:25;5.32;;;3.40;;
75073;SDS011;63652;51.526;5.080;2023-06-10T14:58:51;4.25;;;3.45;;
75073;SDS011;63652;51.526;5.080;2023-06-10T15:01:16;4.88;;;2.85;;
75073;SDS011;63652;51.526;5.080;2023-06-10T15:03:43;4.85;;;3.03;;
75073;SDS011;63652;51.526;5.080;2023-06-10T15:06:09;5.57;;;3.17;;
75073;SDS011;63652;51.526;5.080;2023-06-10T15:08:34;6.32;;;4.07;;
75073;SDS011;63652;51.526;5.080;2023-06-10T15:11:00;4.60;;;3.53;;
75073;SDS011;63652;51.526;5.080;2023-06-10T15:13:27;5.45;;;3.13;;